This is the latest recevied weather packets stored in our database for station/object OM2RC-6. If no packets are shown the sender has not sent any weather packets the latest 10 day(s).
| Time | Temp. | Humidity | Pressure | Rain* | Wind** | Luminosity | Snow |
|---|---|---|---|---|---|---|---|
| 1777775630 | 13.33° C | 73% | 1020.6 hPa | - | - | - | - |
| 1777775329 | 13.33° C | 74% | 1020.6 hPa | - | - | - | - |
| 1777775028 | 12.78° C | 76% | 1020.6 hPa | - | - | - | - |
| 1777774727 | 13.33° C | 75% | 1020.4 hPa | - | - | - | - |
| 1777774426 | 12.78° C | 77% | 1020.4 hPa | - | - | - | - |
| 1777774125 | 12.78° C | 78% | 1020.3 hPa | - | - | - | - |
| 1777773523 | 12.22° C | 86% | 1020.5 hPa | - | - | - | - |
| 1777769609 | 12.22° C | 85% | 1020.6 hPa | - | - | - | - |
| 1777768705 | 12.78° C | 79% | 1020.5 hPa | - | - | - | - |
| 1777768103 | 12.78° C | 75% | 1020.5 hPa | - | - | - | - |
| 1777767802 | 12.78° C | 73% | 1020.5 hPa | - | - | - | - |
| 1777767200 | 10.56° C | 92% | 1020.6 hPa | - | - | - | - |
| 1777766899 | 8.33° C | 100% | 1020.7 hPa | - | - | - | - |
| 1777765693 | 8.89° C | 100% | 1020.8 hPa | - | - | - | - |
| 1777765392 | 9.44° C | 95% | 1020.7 hPa | - | - | - | - |
| 1777765091 | 8.89° C | 100% | 1020.7 hPa | - | - | - | - |
| 1777764790 | 10.56° C | 88% | 1020.9 hPa | - | - | - | - |
| 1777764489 | 15° C | 51% | 1020.6 hPa | - | - | - | - |
| 1777764188 | 15° C | 54% | 1020.5 hPa | - | - | - | - |
| 1777760576 | 11.11° C | 80% | 1020.9 hPa | - | - | - | - |
| 1777760275 | 10.56° C | 86% | 1020.9 hPa | - | - | - | - |
| 1777759974 | 10° C | 91% | 1021 hPa | - | - | - | - |
| 1777759674 | 10° C | 89% | 1021 hPa | - | - | - | - |
| 1777757866 | 11.67° C | 68% | 1020.9 hPa | - | - | - | - |
| 1777757264 | 12.22° C | 70% | 1020.9 hPa | - | - | - | - |
* Rain since midnight (hover to see other rain measurements)
** Current wind speed in m/s (hover to see current wind gust speed)